Stations météo

réclame
Mon MeteoGroup
Plasencia, Espagne (8252): Température de l'air & dewpoint: 15.07.2018 09:00:00 - 21.07.2018 09:00:00 (CEST)Plasencia, Espagne (8252): Vitesse du vent & gusts: 15.07.2018 09:00:00 - 21.07.2018 09:00:00 (CEST)Plasencia, Espagne (8252): Direction du vent: 15.07.2018 09:00:00 - 21.07.2018 09:00:00 (CEST)Plasencia, Espagne (8252): Quantités de précipitations: 15.07.2018 09:00:00 - 21.07.2018 09:00:00 (CEST)
Date & Time tt [°C] td [°C] ff [km/h] ff [knt] fx [km/h] fx [knt] dd rr [mm]
21.07.2018 09:00:00 19,8 13,8 2 1 5 3 WSW 0,0
21.07.2018 08:00:00 19,2 13,0 0 0 1 0 N -
21.07.2018 07:00:00 20,2 12,6 0 0 11 6 E 0,0
21.07.2018 06:00:00 20,8 13,0 3 2 16 9 NNE 0,0
21.07.2018 05:00:00 21,5 13,2 4 2 14 8 N 0,0
21.07.2018 04:00:00 21,8 13,5 3 1 18 10 NE 0,0
21.07.2018 03:00:00 22,7 14,0 11 6 36 19 N 0,0
21.07.2018 02:00:00 23,4 14,7 8 5 29 16 N -
21.07.2018 01:00:00 24,1 14,5 6 4 24 13 N 0,0
21.07.2018 00:00:00 24,7 14,1 4 2 22 12 N 0,0
20.07.2018 23:00:00 26,7 14,4 5 3 17 9 NNE 0,0
20.07.2018 22:00:00 27,7 13,7 4 2 19 10 NW 0,0
20.07.2018 21:00:00 29,4 14,4 8 5 29 15 WNW 0,0
20.07.2018 20:00:00 30,1 14,6 13 7 31 17 W -
20.07.2018 19:00:00 32,2 16,5 10 5 31 17 W 0,0
20.07.2018 18:00:00 31,9 15,8 14 8 32 17 W 0,0
20.07.2018 17:00:00 31,5 16,6 10 6 29 15 W 0,0
20.07.2018 16:00:00 31,1 16,6 11 6 31 17 W 0,0
20.07.2018 15:00:00 30,2 18,0 8 5 28 15 W 0,0
20.07.2018 14:00:00 29,0 18,2 8 5 27 14 W -
20.07.2018 13:00:00 28,4 18,2 8 5 24 13 W 0,0
20.07.2018 12:00:00 27,0 18,3 6 4 22 12 WNW 0,0
20.07.2018 11:00:00 25,2 18,2 7 4 24 13 WNW 0,0
20.07.2018 10:00:00 22,5 17,9 5 3 18 10 N 0,0
20.07.2018 09:00:00 18,1 15,7 7 4 16 9 WSW 0,0
20.07.2018 08:00:00 17,7 15,2 7 4 18 10 W -
20.07.2018 07:00:00 18,0 15,1 5 3 18 10 W 0,0
20.07.2018 06:00:00 18,7 15,0 5 3 13 7 W 0,0
20.07.2018 05:00:00 19,6 14,8 5 3 14 8 WSW 0,0
20.07.2018 04:00:00 20,7 14,1 4 2 10 5 W 0,0
20.07.2018 03:00:00 21,5 13,4 4 2 18 10 SW 0,0
20.07.2018 02:00:00 22,7 12,0 0 0 16 9 NW -
20.07.2018 01:00:00 23,9 11,6 5 3 19 10 N 0,0
20.07.2018 00:00:00 - - - - - - - -
19.07.2018 23:00:00 - - - - - - - -
19.07.2018 22:00:00 27,1 11,6 0 0 15 8 W 0,0
19.07.2018 21:00:00 28,6 11,7 6 3 16 9 WSW 0,0
19.07.2018 20:00:00 29,9 11,9 8 5 23 13 W -
19.07.2018 19:00:00 31,5 12,3 8 4 21 11 WNW 0,0
19.07.2018 18:00:00 31,5 13,8 5 3 24 13 WNW 0,0
19.07.2018 17:00:00 31,0 14,1 8 5 24 13 W 0,0
19.07.2018 16:00:00 30,5 15,0 9 5 37 20 W 0,0
19.07.2018 15:00:00 30,1 15,8 9 5 25 13 W 0,0
19.07.2018 14:00:00 29,2 15,0 8 4 20 11 W -
19.07.2018 13:00:00 28,1 15,1 4 2 20 11 SW 0,0
19.07.2018 12:00:00 25,4 16,6 3 2 11 6 W 0,0
19.07.2018 11:00:00 22,4 17,1 5 3 15 8 WNW 0,0
19.07.2018 10:00:00 19,9 15,5 5 3 12 6 WNW 0,0
19.07.2018 09:00:00 16,5 15,2 0 0 7 4 N 0,0
19.07.2018 08:00:00 15,7 14,2 0 0 9 5 WSW -
19.07.2018 07:00:00 16,0 13,5 0 0 5 3 WSW 0,0
19.07.2018 06:00:00 17,1 12,6 0 0 9 5 ENE 0,0
19.07.2018 05:00:00 18,1 13,8 1 1 6 3 E 0,0
19.07.2018 04:00:00 19,2 15,4 0 0 9 5 NNW 0,0
19.07.2018 03:00:00 20,0 15,4 4 2 12 6 W 0,0
19.07.2018 02:00:00 21,2 15,1 5 3 14 8 W -
19.07.2018 01:00:00 22,8 14,6 8 4 16 9 W 0,0
19.07.2018 00:00:00 24,4 12,6 5 3 14 8 WNW 0,0
18.07.2018 23:00:00 - - - - - - - -
18.07.2018 22:00:00 28,0 13,2 3 1 15 8 W 0,0
18.07.2018 21:00:00 29,7 13,5 4 2 21 11 W 0,0
18.07.2018 20:00:00 31,3 14,0 5 3 17 9 WNW -
18.07.2018 19:00:00 33,5 14,0 5 3 22 12 WSW 0,0
18.07.2018 18:00:00 34,0 14,5 7 4 24 13 WSW 0,0
18.07.2018 17:00:00 33,2 14,8 7 4 29 16 WSW 0,0
18.07.2018 16:00:00 33,1 16,5 4 2 28 15 SW 0,0
18.07.2018 15:00:00 31,2 16,4 8 4 26 14 WSW 0,0
18.07.2018 14:00:00 29,9 18,3 8 5 19 11 W -
18.07.2018 13:00:00 29,1 19,1 4 2 17 9 W 0,0
18.07.2018 12:00:00 27,0 18,8 4 2 16 9 W 0,0
18.07.2018 11:00:00 25,5 17,7 2 1 10 5 WSW 0,0
18.07.2018 10:00:00 23,3 17,8 3 2 7 4 WNW 0,0
18.07.2018 09:00:00 20,7 16,1 1 0 10 5 WSW 0,0
18.07.2018 08:00:00 19,8 14,6 2 1 7 4 W -
18.07.2018 07:00:00 20,5 14,6 0 0 5 3 N 0,0
18.07.2018 06:00:00 21,0 15,5 0 0 6 3 ENE 0,0
18.07.2018 05:00:00 22,6 17,1 4 2 14 8 W 0,0
18.07.2018 04:00:00 23,6 17,1 3 1 17 9 W 0,0
18.07.2018 03:00:00 24,2 16,0 6 3 11 6 W 0,0
18.07.2018 02:00:00 25,0 15,9 1 0 8 5 WNW -
18.07.2018 01:00:00 25,4 13,9 1 0 10 5 SE 0,0
18.07.2018 00:00:00 26,7 14,1 5 3 14 7 E 0,0
17.07.2018 23:00:00 - - - - - - - -
17.07.2018 22:00:00 30,5 13,3 0 0 9 5 NNE 0,0
17.07.2018 21:00:00 32,4 14,5 4 2 15 8 W 0,0
17.07.2018 20:00:00 34,1 15,5 6 3 20 11 WNW -
17.07.2018 19:00:00 35,6 16,8 9 5 22 12 W 0,0
17.07.2018 18:00:00 35,9 17,1 1 0 14 8 ESE 0,0
17.07.2018 17:00:00 35,8 17,1 6 3 16 9 WSW 0,0
17.07.2018 16:00:00 34,8 17,1 4 2 23 12 ESE 0,0
17.07.2018 15:00:00 34,2 17,5 3 2 18 10 SSW 0,0
17.07.2018 14:00:00 33,1 16,9 4 2 23 13 SSE -
17.07.2018 13:00:00 31,5 17,1 5 3 26 14 SE 0,0
17.07.2018 12:00:00 29,5 17,0 5 3 24 13 SE 0,0
17.07.2018 11:00:00 27,1 16,0 8 5 31 17 ESE 0,0
17.07.2018 10:00:00 24,6 15,0 6 3 16 9 ESE 0,0
17.07.2018 09:00:00 22,4 13,8 4 2 15 8 ESE 0,0
17.07.2018 08:00:00 21,0 13,0 5 3 11 6 E -
17.07.2018 07:00:00 20,3 12,7 4 2 7 4 E 0,0
17.07.2018 06:00:00 20,6 12,5 2 1 6 3 E 0,0
17.07.2018 05:00:00 21,0 12,4 0 0 4 2 N 0,0
17.07.2018 04:00:00 22,6 13,1 1 1 14 7 SE 0,0
17.07.2018 03:00:00 23,8 13,4 6 3 19 10 E 0,0
17.07.2018 02:00:00 23,3 13,2 4 2 11 6 NE -
17.07.2018 01:00:00 23,6 12,8 0 0 5 3 N 0,0
17.07.2018 00:00:00 25,3 12,8 1 0 11 6 SW 0,0
16.07.2018 23:00:00 26,5 12,5 3 1 14 8 NE 0,0
16.07.2018 22:00:00 27,9 13,8 3 2 13 7 NNE 0,0
16.07.2018 21:00:00 29,4 14,8 4 2 16 9 WNW 0,0
16.07.2018 20:00:00 31,0 15,4 3 2 19 11 WNW -
16.07.2018 19:00:00 32,2 16,5 5 3 21 11 WNW 0,0
16.07.2018 18:00:00 31,6 16,0 5 3 23 13 W 0,0
16.07.2018 17:00:00 31,4 17,0 6 4 25 13 W 0,0
16.07.2018 16:00:00 30,2 15,9 8 4 21 11 W 0,0
16.07.2018 15:00:00 29,4 16,2 6 3 19 11 WSW 0,0
16.07.2018 14:00:00 28,3 15,3 5 3 25 13 NW -
16.07.2018 13:00:00 27,9 15,9 6 3 19 11 WNW 0,0
16.07.2018 12:00:00 25,4 15,7 4 2 21 12 N 0,0
16.07.2018 11:00:00 23,9 16,1 6 4 24 13 N 0,0
16.07.2018 10:00:00 20,2 16,5 7 4 18 10 WNW 0,0
16.07.2018 09:00:00 16,2 14,4 8 4 23 12 WNW 0,0
16.07.2018 08:00:00 15,6 13,8 6 4 21 11 WNW -
16.07.2018 07:00:00 15,9 13,4 3 2 14 8 WNW 0,0
16.07.2018 06:00:00 16,5 13,5 5 3 14 8 NW 0,0
16.07.2018 05:00:00 17,1 13,9 6 4 16 9 WNW 0,0
16.07.2018 04:00:00 17,5 13,3 6 3 16 9 WNW 0,0
16.07.2018 03:00:00 18,0 13,7 4 2 15 8 WNW 0,0
16.07.2018 02:00:00 18,3 13,8 5 3 12 7 WNW -
16.07.2018 01:00:00 19,2 14,4 5 3 16 9 WNW 0,0
16.07.2018 00:00:00 20,1 14,2 6 3 26 14 WNW 0,0
15.07.2018 23:00:00 20,7 14,1 9 5 29 15 W 0,0
15.07.2018 22:00:00 21,6 13,5 13 7 29 16 W 0,0
15.07.2018 21:00:00 - - - - - - - -
15.07.2018 20:00:00 26,6 12,6 7 4 23 13 W -
15.07.2018 19:00:00 27,2 13,2 6 3 28 15 W 0,0
15.07.2018 18:00:00 27,6 13,6 8 5 25 13 WNW 0,0
15.07.2018 17:00:00 27,8 15,1 7 4 27 14 WNW 0,0
15.07.2018 16:00:00 26,1 14,5 9 5 27 15 WNW 0,0
15.07.2018 15:00:00 25,5 14,9 8 4 24 13 W 0,0
15.07.2018 14:00:00 25,4 15,7 8 4 24 13 W -
15.07.2018 13:00:00 23,2 15,3 8 4 23 12 W 0,0
15.07.2018 12:00:00 23,0 15,8 5 3 20 11 W 0,0
15.07.2018 11:00:00 21,3 16,0 6 3 15 8 W 0,0
15.07.2018 10:00:00 19,3 16,0 5 3 18 10 W 0,0
15.07.2018 09:00:00 17,5 15,5 9 5 18 10 WSW 0,0

tt = Température de l'air
td = dewpoint
ff = Vitesse du vent
fx = gusts
dd = Direction du vent
rr = Quantités de précipitations

stations d'obs. à proximité